sensor_id;sensor_type;location;lat;lon;timestamp;P1;durP1;ratioP1;P2;durP2;ratioP2
2061;SDS011;11070;51.336;12.340;2023-06-26T00:01:23;7.10;;;6.50;;
2061;SDS011;11070;51.336;12.340;2023-06-26T00:03:48;7.60;;;6.90;;
2061;SDS011;11070;51.336;12.340;2023-06-26T00:06:14;8.07;;;6.77;;
2061;SDS011;11070;51.336;12.340;2023-06-26T00:08:40;9.13;;;7.00;;
2061;SDS011;11070;51.336;12.340;2023-06-26T00:11:06;7.80;;;7.10;;
2061;SDS011;11070;51.336;12.340;2023-06-26T00:13:31;7.30;;;6.70;;
2061;SDS011;11070;51.336;12.340;2023-06-26T00:15:57;7.17;;;6.57;;
2061;SDS011;11070;51.336;12.340;2023-06-26T00:18:23;7.30;;;6.60;;
2061;SDS011;11070;51.336;12.340;2023-06-26T00:20:48;8.17;;;7.47;;
2061;SDS011;11070;51.336;12.340;2023-06-26T00:23:16;7.43;;;6.83;;
2061;SDS011;11070;51.336;12.340;2023-06-26T00:25:42;7.65;;;7.05;;
2061;SDS011;11070;51.336;12.340;2023-06-26T00:28:08;7.85;;;7.25;;
2061;SDS011;11070;51.336;12.340;2023-06-26T00:30:34;6.90;;;6.40;;
2061;SDS011;11070;51.336;12.340;2023-06-26T00:33:00;7.47;;;6.77;;
2061;SDS011;11070;51.336;12.340;2023-06-26T00:35:26;8.30;;;7.60;;
2061;SDS011;11070;51.336;12.340;2023-06-26T00:37:52;7.57;;;6.97;;
2061;SDS011;11070;51.336;12.340;2023-06-26T00:40:18;8.30;;;7.60;;
2061;SDS011;11070;51.336;12.340;2023-06-26T00:42:43;8.17;;;7.47;;
2061;SDS011;11070;51.336;12.340;2023-06-26T00:45:09;8.17;;;7.37;;
2061;SDS011;11070;51.336;12.340;2023-06-26T00:47:35;8.87;;;8.07;;
2061;SDS011;11070;51.336;12.340;2023-06-26T00:50:01;7.63;;;6.97;;
2061;SDS011;11070;51.336;12.340;2023-06-26T00:52:27;8.07;;;7.37;;
2061;SDS011;11070;51.336;12.340;2023-06-26T00:54:53;7.80;;;7.13;;
2061;SDS011;11070;51.336;12.340;2023-06-26T00:57:18;9.40;;;7.60;;
2061;SDS011;11070;51.336;12.340;2023-06-26T00:59:44;7.60;;;6.90;;
2061;SDS011;11070;51.336;12.340;2023-06-26T01:02:10;8.13;;;7.33;;
2061;SDS011;11070;51.336;12.340;2023-06-26T01:04:36;8.90;;;7.83;;
2061;SDS011;11070;51.336;12.340;2023-06-26T01:07:02;7.70;;;7.00;;
2061;SDS011;11070;51.336;12.340;2023-06-26T01:09:28;7.95;;;7.25;;
2061;SDS011;11070;51.336;12.340;2023-06-26T01:11:56;8.40;;;7.57;;
2061;SDS011;11070;51.336;12.340;2023-06-26T01:14:21;7.40;;;6.80;;
2061;SDS011;11070;51.336;12.340;2023-06-26T01:16:47;7.97;;;7.20;;
2061;SDS011;11070;51.336;12.340;2023-06-26T01:19:18;8.68;;;7.97;;
2061;SDS011;11070;51.336;12.340;2023-06-26T01:21:50;8.23;;;7.53;;
2061;SDS011;11070;51.336;12.340;2023-06-26T01:24:22;8.23;;;7.53;;
2061;SDS011;11070;51.336;12.340;2023-06-26T01:26:52;7.97;;;7.38;;
2061;SDS011;11070;51.336;12.340;2023-06-26T01:29:18;8.80;;;8.00;;
2061;SDS011;11070;51.336;12.340;2023-06-26T01:31:48;8.27;;;7.57;;
2061;SDS011;11070;51.336;12.340;2023-06-26T01:34:15;7.32;;;6.72;;
2061;SDS011;11070;51.336;12.340;2023-06-26T01:36:43;7.65;;;7.00;;
2061;SDS011;11070;51.336;12.340;2023-06-26T01:39:10;7.93;;;7.32;;
2061;SDS011;11070;51.336;12.340;2023-06-26T01:41:39;8.68;;;7.78;;
2061;SDS011;11070;51.336;12.340;2023-06-26T01:46:36;9.70;;;8.80;;
2061;SDS011;11070;51.336;12.340;2023-06-26T01:49:35;9.52;;;8.48;;
2061;SDS011;11070;51.336;12.340;2023-06-26T01:52:12;8.80;;;8.00;;
2061;SDS011;11070;51.336;12.340;2023-06-26T01:57:45;8.93;;;8.13;;
2061;SDS011;11070;51.336;12.340;2023-06-26T02:00:13;8.93;;;8.13;;
2061;SDS011;11070;51.336;12.340;2023-06-26T02:02:43;9.48;;;8.52;;
2061;SDS011;11070;51.336;12.340;2023-06-26T02:05:09;9.07;;;8.18;;
2061;SDS011;11070;51.336;12.340;2023-06-26T02:07:35;9.70;;;8.30;;
2061;SDS011;11070;51.336;12.340;2023-06-26T02:10:01;8.40;;;7.77;;
2061;SDS011;11070;51.336;12.340;2023-06-26T02:12:27;8.95;;;8.18;;
2061;SDS011;11070;51.336;12.340;2023-06-26T02:14:53;8.70;;;7.90;;
2061;SDS011;11070;51.336;12.340;2023-06-26T02:17:19;8.00;;;7.37;;
2061;SDS011;11070;51.336;12.340;2023-06-26T02:19:44;9.40;;;8.60;;
2061;SDS011;11070;51.336;12.340;2023-06-26T02:22:13;9.40;;;8.60;;
2061;SDS011;11070;51.336;12.340;2023-06-26T02:24:40;8.90;;;8.10;;
2061;SDS011;11070;51.336;12.340;2023-06-26T02:27:06;10.70;;;8.95;;
2061;SDS011;11070;51.336;12.340;2023-06-26T02:29:31;9.93;;;9.00;;
2061;SDS011;11070;51.336;12.340;2023-06-26T02:31:57;10.00;;;9.10;;
2061;SDS011;11070;51.336;12.340;2023-06-26T02:34:23;9.70;;;8.80;;
2061;SDS011;11070;51.336;12.340;2023-06-26T02:36:48;10.07;;;9.07;;
2061;SDS011;11070;51.336;12.340;2023-06-26T02:39:14;9.90;;;9.00;;
2061;SDS011;11070;51.336;12.340;2023-06-26T02:41:40;11.20;;;10.20;;
2061;SDS011;11070;51.336;12.340;2023-06-26T02:44:06;10.93;;;9.90;;
2061;SDS011;11070;51.336;12.340;2023-06-26T02:46:32;10.67;;;9.20;;
2061;SDS011;11070;51.336;12.340;2023-06-26T02:48:58;10.82;;;9.55;;
2061;SDS011;11070;51.336;12.340;2023-06-26T02:51:24;12.13;;;10.40;;
2061;SDS011;11070;51.336;12.340;2023-06-26T02:53:50;11.37;;;10.30;;
2061;SDS011;11070;51.336;12.340;2023-06-26T02:56:15;11.97;;;10.93;;
2061;SDS011;11070;51.336;12.340;2023-06-26T02:58:41;10.63;;;9.73;;
2061;SDS011;11070;51.336;12.340;2023-06-26T03:01:07;11.77;;;10.57;;
2061;SDS011;11070;51.336;12.340;2023-06-26T03:03:32;11.57;;;10.47;;
2061;SDS011;11070;51.336;12.340;2023-06-26T03:06:05;10.68;;;9.68;;
2061;SDS011;11070;51.336;12.340;2023-06-26T03:08:32;10.75;;;9.70;;
2061;SDS011;11070;51.336;12.340;2023-06-26T03:10:58;12.50;;;10.13;;
2061;SDS011;11070;51.336;12.340;2023-06-26T03:13:23;11.20;;;10.10;;
2061;SDS011;11070;51.336;12.340;2023-06-26T03:15:50;11.27;;;10.18;;
2061;SDS011;11070;51.336;12.340;2023-06-26T03:18:15;10.90;;;9.90;;
2061;SDS011;11070;51.336;12.340;2023-06-26T03:20:41;10.03;;;9.03;;
2061;SDS011;11070;51.336;12.340;2023-06-26T03:23:07;11.63;;;10.53;;
2061;SDS011;11070;51.336;12.340;2023-06-26T03:25:32;12.70;;;10.10;;
2061;SDS011;11070;51.336;12.340;2023-06-26T03:27:58;10.03;;;9.13;;
2061;SDS011;11070;51.336;12.340;2023-06-26T03:30:24;10.93;;;9.60;;
2061;SDS011;11070;51.336;12.340;2023-06-26T03:32:49;10.53;;;9.60;;
2061;SDS011;11070;51.336;12.340;2023-06-26T03:35:15;9.40;;;8.60;;
2061;SDS011;11070;51.336;12.340;2023-06-26T03:37:41;10.50;;;9.50;;
2061;SDS011;11070;51.336;12.340;2023-06-26T03:40:06;10.70;;;9.70;;
2061;SDS011;11070;51.336;12.340;2023-06-26T03:42:33;10.48;;;9.57;;
2061;SDS011;11070;51.336;12.340;2023-06-26T03:44:58;10.67;;;9.60;;
2061;SDS011;11070;51.336;12.340;2023-06-26T03:47:24;10.23;;;9.23;;
2061;SDS011;11070;51.336;12.340;2023-06-26T03:49:50;11.77;;;10.57;;
2061;SDS011;11070;51.336;12.340;2023-06-26T03:52:15;10.03;;;8.93;;
2061;SDS011;11070;51.336;12.340;2023-06-26T03:54:41;11.10;;;9.80;;
2061;SDS011;11070;51.336;12.340;2023-06-26T03:57:07;10.60;;;9.50;;
2061;SDS011;11070;51.336;12.340;2023-06-26T03:59:32;10.07;;;9.17;;
2061;SDS011;11070;51.336;12.340;2023-06-26T04:01:58;9.97;;;9.07;;
2061;SDS011;11070;51.336;12.340;2023-06-26T04:04:24;10.60;;;9.50;;
2061;SDS011;11070;51.336;12.340;2023-06-26T04:06:49;10.83;;;9.73;;
2061;SDS011;11070;51.336;12.340;2023-06-26T04:09:15;9.45;;;8.65;;
2061;SDS011;11070;51.336;12.340;2023-06-26T04:11:42;10.10;;;9.10;;
2061;SDS011;11070;51.336;12.340;2023-06-26T04:14:07;11.00;;;9.70;;
2061;SDS011;11070;51.336;12.340;2023-06-26T04:16:33;11.07;;;10.07;;
2061;SDS011;11070;51.336;12.340;2023-06-26T04:18:58;10.10;;;9.20;;
2061;SDS011;11070;51.336;12.340;2023-06-26T04:21:24;12.17;;;9.10;;
2061;SDS011;11070;51.336;12.340;2023-06-26T04:23:50;10.50;;;9.50;;
2061;SDS011;11070;51.336;12.340;2023-06-26T04:26:16;10.77;;;9.02;;
2061;SDS011;11070;51.336;12.340;2023-06-26T04:28:41;9.83;;;9.03;;
2061;SDS011;11070;51.336;12.340;2023-06-26T04:31:08;10.53;;;9.43;;
2061;SDS011;11070;51.336;12.340;2023-06-26T04:33:34;10.20;;;9.00;;
2061;SDS011;11070;51.336;12.340;2023-06-26T04:36:03;10.45;;;9.45;;
2061;SDS011;11070;51.336;12.340;2023-06-26T04:38:30;10.68;;;9.68;;
2061;SDS011;11070;51.336;12.340;2023-06-26T04:40:56;10.50;;;9.45;;
2061;SDS011;11070;51.336;12.340;2023-06-26T04:43:22;9.97;;;9.00;;
2061;SDS011;11070;51.336;12.340;2023-06-26T04:45:47;10.57;;;9.63;;
2061;SDS011;11070;51.336;12.340;2023-06-26T04:48:13;9.90;;;9.00;;
2061;SDS011;11070;51.336;12.340;2023-06-26T04:50:39;10.27;;;9.27;;
2061;SDS011;11070;51.336;12.340;2023-06-26T04:53:05;9.70;;;8.90;;
2061;SDS011;11070;51.336;12.340;2023-06-26T04:55:31;9.97;;;9.17;;
2061;SDS011;11070;51.336;12.340;2023-06-26T04:57:56;9.53;;;8.53;;
2061;SDS011;11070;51.336;12.340;2023-06-26T05:00:22;13.07;;;9.03;;
2061;SDS011;11070;51.336;12.340;2023-06-26T05:02:49;9.90;;;9.00;;
2061;SDS011;11070;51.336;12.340;2023-06-26T05:05:25;9.55;;;8.63;;
2061;SDS011;11070;51.336;12.340;2023-06-26T05:07:52;9.98;;;8.90;;
2061;SDS011;11070;51.336;12.340;2023-06-26T05:10:19;9.32;;;8.35;;
2061;SDS011;11070;51.336;12.340;2023-06-26T05:12:45;8.90;;;8.17;;
2061;SDS011;11070;51.336;12.340;2023-06-26T05:15:10;9.20;;;8.30;;
2061;SDS011;11070;51.336;12.340;2023-06-26T05:17:36;9.47;;;8.60;;
2061;SDS011;11070;51.336;12.340;2023-06-26T05:20:02;10.10;;;9.20;;
2061;SDS011;11070;51.336;12.340;2023-06-26T05:22:28;9.68;;;8.70;;
2061;SDS011;11070;51.336;12.340;2023-06-26T05:24:55;9.20;;;8.48;;
2061;SDS011;11070;51.336;12.340;2023-06-26T05:27:24;9.30;;;8.40;;
2061;SDS011;11070;51.336;12.340;2023-06-26T05:29:50;10.00;;;9.07;;
2061;SDS011;11070;51.336;12.340;2023-06-26T05:32:16;8.27;;;7.60;;
2061;SDS011;11070;51.336;12.340;2023-06-26T05:34:42;9.40;;;8.60;;
2061;SDS011;11070;51.336;12.340;2023-06-26T05:37:19;9.32;;;8.52;;
2061;SDS011;11070;51.336;12.340;2023-06-26T05:39:46;9.13;;;8.38;;
2061;SDS011;11070;51.336;12.340;2023-06-26T05:42:13;9.70;;;8.80;;
2061;SDS011;11070;51.336;12.340;2023-06-26T05:44:39;10.30;;;9.40;;
2061;SDS011;11070;51.336;12.340;2023-06-26T05:47:04;9.87;;;8.97;;
2061;SDS011;11070;51.336;12.340;2023-06-26T05:49:30;10.70;;;9.70;;
2061;SDS011;11070;51.336;12.340;2023-06-26T05:51:56;9.20;;;8.30;;
2061;SDS011;11070;51.336;12.340;2023-06-26T05:54:23;9.80;;;9.00;;
2061;SDS011;11070;51.336;12.340;2023-06-26T05:56:49;9.60;;;8.70;;
2061;SDS011;11070;51.336;12.340;2023-06-26T05:59:20;9.63;;;8.80;;
2061;SDS011;11070;51.336;12.340;2023-06-26T06:01:47;9.80;;;9.00;;
2061;SDS011;11070;51.336;12.340;2023-06-26T06:04:13;11.27;;;8.63;;
2061;SDS011;11070;51.336;12.340;2023-06-26T06:06:38;12.60;;;8.67;;
2061;SDS011;11070;51.336;12.340;2023-06-26T06:09:04;9.63;;;8.63;;
2061;SDS011;11070;51.336;12.340;2023-06-26T06:11:30;10.03;;;9.00;;
2061;SDS011;11070;51.336;12.340;2023-06-26T06:13:55;9.63;;;8.63;;
2061;SDS011;11070;51.336;12.340;2023-06-26T06:16:21;9.30;;;8.43;;
2061;SDS011;11070;51.336;12.340;2023-06-26T06:18:46;9.67;;;8.87;;
2061;SDS011;11070;51.336;12.340;2023-06-26T06:21:12;9.23;;;8.50;;
2061;SDS011;11070;51.336;12.340;2023-06-26T06:23:38;9.70;;;8.90;;
2061;SDS011;11070;51.336;12.340;2023-06-26T06:26:03;9.70;;;8.70;;
2061;SDS011;11070;51.336;12.340;2023-06-26T06:28:29;10.40;;;8.80;;
2061;SDS011;11070;51.336;12.340;2023-06-26T06:30:55;8.83;;;8.10;;
2061;SDS011;11070;51.336;12.340;2023-06-26T06:33:20;9.60;;;8.43;;
2061;SDS011;11070;51.336;12.340;2023-06-26T06:35:46;10.13;;;9.30;;
2061;SDS011;11070;51.336;12.340;2023-06-26T06:38:11;9.50;;;8.53;;
2061;SDS011;11070;51.336;12.340;2023-06-26T06:40:37;10.23;;;9.23;;
2061;SDS011;11070;51.336;12.340;2023-06-26T06:43:03;12.17;;;9.30;;
2061;SDS011;11070;51.336;12.340;2023-06-26T06:45:29;10.10;;;9.10;;
2061;SDS011;11070;51.336;12.340;2023-06-26T06:47:54;10.40;;;9.40;;
2061;SDS011;11070;51.336;12.340;2023-06-26T06:50:20;9.73;;;8.77;;
2061;SDS011;11070;51.336;12.340;2023-06-26T06:52:46;9.73;;;8.83;;
2061;SDS011;11070;51.336;12.340;2023-06-26T06:55:12;10.63;;;8.87;;
2061;SDS011;11070;51.336;12.340;2023-06-26T06:57:38;9.30;;;8.40;;
2061;SDS011;11070;51.336;12.340;2023-06-26T07:02:38;11.80;;;9.00;;
2061;SDS011;11070;51.336;12.340;2023-06-26T07:05:04;9.83;;;9.03;;
2061;SDS011;11070;51.336;12.340;2023-06-26T07:07:31;9.40;;;8.47;;
2061;SDS011;11070;51.336;12.340;2023-06-26T07:09:59;10.83;;;9.10;;
2061;SDS011;11070;51.336;12.340;2023-06-26T07:12:26;9.93;;;8.97;;
2061;SDS011;11070;51.336;12.340;2023-06-26T07:14:51;9.60;;;8.70;;
2061;SDS011;11070;51.336;12.340;2023-06-26T07:17:18;9.20;;;8.40;;
2061;SDS011;11070;51.336;12.340;2023-06-26T07:19:44;9.57;;;8.43;;
2061;SDS011;11070;51.336;12.340;2023-06-26T07:22:11;9.37;;;8.40;;
2061;SDS011;11070;51.336;12.340;2023-06-26T07:24:37;9.70;;;8.70;;
2061;SDS011;11070;51.336;12.340;2023-06-26T07:27:02;9.13;;;8.33;;
2061;SDS011;11070;51.336;12.340;2023-06-26T07:29:28;9.87;;;8.90;;
2061;SDS011;11070;51.336;12.340;2023-06-26T07:31:54;10.20;;;9.30;;
2061;SDS011;11070;51.336;12.340;2023-06-26T07:34:19;9.00;;;8.30;;
2061;SDS011;11070;51.336;12.340;2023-06-26T07:36:45;8.63;;;7.93;;
2061;SDS011;11070;51.336;12.340;2023-06-26T07:39:11;17.30;;;9.07;;
2061;SDS011;11070;51.336;12.340;2023-06-26T07:41:36;9.07;;;8.17;;
2061;SDS011;11070;51.336;12.340;2023-06-26T07:44:02;8.60;;;7.80;;
2061;SDS011;11070;51.336;12.340;2023-06-26T07:46:28;9.80;;;9.00;;
2061;SDS011;11070;51.336;12.340;2023-06-26T07:48:53;10.33;;;8.87;;
2061;SDS011;11070;51.336;12.340;2023-06-26T07:51:19;9.73;;;8.73;;
2061;SDS011;11070;51.336;12.340;2023-06-26T07:53:45;9.37;;;8.50;;
2061;SDS011;11070;51.336;12.340;2023-06-26T07:56:11;8.57;;;7.77;;
2061;SDS011;11070;51.336;12.340;2023-06-26T07:58:37;9.30;;;8.60;;
2061;SDS011;11070;51.336;12.340;2023-06-26T08:01:02;9.77;;;8.83;;
2061;SDS011;11070;51.336;12.340;2023-06-26T08:03:28;14.63;;;8.40;;
2061;SDS011;11070;51.336;12.340;2023-06-26T08:05:54;8.87;;;8.10;;
2061;SDS011;11070;51.336;12.340;2023-06-26T08:08:20;8.73;;;7.93;;
2061;SDS011;11070;51.336;12.340;2023-06-26T08:10:45;11.93;;;8.53;;
2061;SDS011;11070;51.336;12.340;2023-06-26T08:13:11;8.67;;;7.93;;
2061;SDS011;11070;51.336;12.340;2023-06-26T08:15:37;8.70;;;8.00;;
2061;SDS011;11070;51.336;12.340;2023-06-26T08:18:02;9.03;;;8.23;;
2061;SDS011;11070;51.336;12.340;2023-06-26T08:20:28;9.30;;;8.00;;
2061;SDS011;11070;51.336;12.340;2023-06-26T08:22:54;10.77;;;8.03;;
2061;SDS011;11070;51.336;12.340;2023-06-26T08:25:20;8.23;;;7.63;;
2061;SDS011;11070;51.336;12.340;2023-06-26T08:27:46;9.90;;;8.10;;
2061;SDS011;11070;51.336;12.340;2023-06-26T08:30:12;8.50;;;7.80;;
2061;SDS011;11070;51.336;12.340;2023-06-26T08:32:38;13.63;;;7.43;;
2061;SDS011;11070;51.336;12.340;2023-06-26T08:35:05;8.30;;;7.50;;
2061;SDS011;11070;51.336;12.340;2023-06-26T08:37:31;8.17;;;7.53;;
2061;SDS011;11070;51.336;12.340;2023-06-26T08:39:58;8.47;;;7.77;;
2061;SDS011;11070;51.336;12.340;2023-06-26T08:42:24;11.23;;;7.60;;
2061;SDS011;11070;51.336;12.340;2023-06-26T08:44:50;9.70;;;7.40;;
2061;SDS011;11070;51.336;12.340;2023-06-26T08:47:17;7.93;;;7.33;;
2061;SDS011;11070;51.336;12.340;2023-06-26T08:49:46;7.90;;;7.20;;
2061;SDS011;11070;51.336;12.340;2023-06-26T08:52:35;8.23;;;7.47;;
2061;SDS011;11070;51.336;12.340;2023-06-26T08:55:06;8.47;;;7.57;;
2061;SDS011;11070;51.336;12.340;2023-06-26T08:57:36;7.70;;;7.00;;
2061;SDS011;11070;51.336;12.340;2023-06-26T09:00:02;7.70;;;7.10;;
2061;SDS011;11070;51.336;12.340;2023-06-26T09:02:29;7.67;;;7.00;;
2061;SDS011;11070;51.336;12.340;2023-06-26T09:04:55;7.30;;;6.60;;
2061;SDS011;11070;51.336;12.340;2023-06-26T09:07:21;6.83;;;6.33;;
2061;SDS011;11070;51.336;12.340;2023-06-26T09:09:46;7.57;;;6.87;;
2061;SDS011;11070;51.336;12.340;2023-06-26T09:12:12;7.70;;;6.90;;
2061;SDS011;11070;51.336;12.340;2023-06-26T09:14:39;7.67;;;6.93;;
2061;SDS011;11070;51.336;12.340;2023-06-26T09:17:05;8.00;;;7.40;;
2061;SDS011;11070;51.336;12.340;2023-06-26T09:19:31;7.30;;;6.80;;
2061;SDS011;11070;51.336;12.340;2023-06-26T09:21:57;7.60;;;7.00;;
2061;SDS011;11070;51.336;12.340;2023-06-26T09:24:23;7.57;;;6.80;;
2061;SDS011;11070;51.336;12.340;2023-06-26T09:26:50;7.60;;;7.00;;
2061;SDS011;11070;51.336;12.340;2023-06-26T09:29:16;7.50;;;6.83;;
2061;SDS011;11070;51.336;12.340;2023-06-26T09:31:43;7.53;;;6.93;;
2061;SDS011;11070;51.336;12.340;2023-06-26T09:34:09;7.33;;;6.83;;
2061;SDS011;11070;51.336;12.340;2023-06-26T09:36:35;7.17;;;6.67;;
2061;SDS011;11070;51.336;12.340;2023-06-26T09:39:02;7.67;;;7.10;;
2061;SDS011;11070;51.336;12.340;2023-06-26T09:41:29;7.73;;;7.13;;
2061;SDS011;11070;51.336;12.340;2023-06-26T09:43:56;7.20;;;6.70;;
2061;SDS011;11070;51.336;12.340;2023-06-26T09:46:26;7.00;;;6.40;;
2061;SDS011;11070;51.336;12.340;2023-06-26T09:49:08;7.13;;;6.53;;
2061;SDS011;11070;51.336;12.340;2023-06-26T09:51:38;7.93;;;7.10;;
2061;SDS011;11070;51.336;12.340;2023-06-26T09:54:05;8.33;;;6.83;;
2061;SDS011;11070;51.336;12.340;2023-06-26T09:56:32;6.70;;;6.20;;
2061;SDS011;11070;51.336;12.340;2023-06-26T09:59:02;6.10;;;5.70;;
2061;SDS011;11070;51.336;12.340;2023-06-26T10:01:29;6.47;;;5.77;;
2061;SDS011;11070;51.336;12.340;2023-06-26T10:03:56;6.50;;;5.80;;
2061;SDS011;11070;51.336;12.340;2023-06-26T10:08:58;9.73;;;6.30;;
2061;SDS011;11070;51.336;12.340;2023-06-26T10:11:27;6.50;;;5.93;;
2061;SDS011;11070;51.336;12.340;2023-06-26T10:13:59;6.70;;;6.30;;
2061;SDS011;11070;51.336;12.340;2023-06-26T10:16:28;6.60;;;6.10;;
2061;SDS011;11070;51.336;12.340;2023-06-26T10:18:58;6.60;;;6.10;;
2061;SDS011;11070;51.336;12.340;2023-06-26T10:21:29;6.30;;;5.80;;
2061;SDS011;11070;51.336;12.340;2023-06-26T10:23:59;7.10;;;5.90;;
2061;SDS011;11070;51.336;12.340;2023-06-26T10:26:28;6.80;;;6.40;;
2061;SDS011;11070;51.336;12.340;2023-06-26T10:28:55;7.67;;;7.07;;
2061;SDS011;11070;51.336;12.340;2023-06-26T10:31:24;6.50;;;6.10;;
2061;SDS011;11070;51.336;12.340;2023-06-26T10:33:51;6.40;;;6.00;;
2061;SDS011;11070;51.336;12.340;2023-06-26T10:36:26;6.93;;;6.40;;
2061;SDS011;11070;51.336;12.340;2023-06-26T10:39:02;6.67;;;6.17;;
2061;SDS011;11070;51.336;12.340;2023-06-26T10:41:39;6.03;;;5.63;;
2061;SDS011;11070;51.336;12.340;2023-06-26T10:44:08;6.03;;;5.60;;
2061;SDS011;11070;51.336;12.340;2023-06-26T10:49:15;6.67;;;6.07;;
2061;SDS011;11070;51.336;12.340;2023-06-26T10:51:48;6.00;;;5.60;;
2061;SDS011;11070;51.336;12.340;2023-06-26T10:54:15;6.07;;;5.70;;
2061;SDS011;11070;51.336;12.340;2023-06-26T10:59:18;7.00;;;6.50;;
2061;SDS011;11070;51.336;12.340;2023-06-26T11:01:46;6.37;;;5.80;;
2061;SDS011;11070;51.336;12.340;2023-06-26T11:04:43;6.00;;;5.60;;
2061;SDS011;11070;51.336;12.340;2023-06-26T11:07:14;6.83;;;6.40;;
2061;SDS011;11070;51.336;12.340;2023-06-26T11:10:00;6.37;;;5.97;;
2061;SDS011;11070;51.336;12.340;2023-06-26T11:12:33;6.53;;;6.13;;
2061;SDS011;11070;51.336;12.340;2023-06-26T11:15:00;6.70;;;6.30;;
2061;SDS011;11070;51.336;12.340;2023-06-26T11:17:26;6.53;;;6.07;;
2061;SDS011;11070;51.336;12.340;2023-06-26T11:19:53;5.80;;;5.43;;
2061;SDS011;11070;51.336;12.340;2023-06-26T11:22:20;6.63;;;6.13;;
2061;SDS011;11070;51.336;12.340;2023-06-26T11:24:49;6.03;;;5.63;;
2061;SDS011;11070;51.336;12.340;2023-06-26T11:27:18;6.03;;;5.53;;
2061;SDS011;11070;51.336;12.340;2023-06-26T11:29:48;6.53;;;6.03;;
2061;SDS011;11070;51.336;12.340;2023-06-26T11:32:14;6.33;;;5.83;;
2061;SDS011;11070;51.336;12.340;2023-06-26T11:34:40;6.20;;;5.70;;
2061;SDS011;11070;51.336;12.340;2023-06-26T11:37:08;6.03;;;5.63;;
2061;SDS011;11070;51.336;12.340;2023-06-26T11:39:33;6.40;;;5.90;;
2061;SDS011;11070;51.336;12.340;2023-06-26T11:41:59;5.73;;;5.40;;
2061;SDS011;11070;51.336;12.340;2023-06-26T11:44:30;6.10;;;5.77;;
2061;SDS011;11070;51.336;12.340;2023-06-26T11:46:56;5.83;;;5.40;;
2061;SDS011;11070;51.336;12.340;2023-06-26T11:49:22;6.57;;;6.10;;
2061;SDS011;11070;51.336;12.340;2023-06-26T11:51:50;6.10;;;5.60;;
2061;SDS011;11070;51.336;12.340;2023-06-26T11:54:26;6.17;;;5.67;;
2061;SDS011;11070;51.336;12.340;2023-06-26T11:56:53;6.20;;;5.70;;
2061;SDS011;11070;51.336;12.340;2023-06-26T11:59:21;6.10;;;5.70;;
2061;SDS011;11070;51.336;12.340;2023-06-26T12:01:48;6.03;;;5.43;;
2061;SDS011;11070;51.336;12.340;2023-06-26T12:04:17;6.07;;;5.67;;
2061;SDS011;11070;51.336;12.340;2023-06-26T12:06:46;5.93;;;5.50;;
2061;SDS011;11070;51.336;12.340;2023-06-26T12:09:13;6.10;;;5.60;;
2061;SDS011;11070;51.336;12.340;2023-06-26T12:11:40;5.80;;;5.50;;
2061;SDS011;11070;51.336;12.340;2023-06-26T12:14:08;5.40;;;5.10;;
2061;SDS011;11070;51.336;12.340;2023-06-26T12:16:35;6.73;;;6.13;;
2061;SDS011;11070;51.336;12.340;2023-06-26T12:19:03;5.90;;;5.40;;
2061;SDS011;11070;51.336;12.340;2023-06-26T12:24:01;5.77;;;5.37;;
2061;SDS011;11070;51.336;12.340;2023-06-26T12:26:28;6.10;;;5.60;;
2061;SDS011;11070;51.336;12.340;2023-06-26T12:29:07;6.37;;;5.73;;
2061;SDS011;11070;51.336;12.340;2023-06-26T12:31:39;5.90;;;5.50;;
2061;SDS011;11070;51.336;12.340;2023-06-26T12:34:10;5.57;;;5.27;;
2061;SDS011;11070;51.336;12.340;2023-06-26T12:36:41;6.80;;;6.20;;
2061;SDS011;11070;51.336;12.340;2023-06-26T12:39:10;6.23;;;5.73;;
2061;SDS011;11070;51.336;12.340;2023-06-26T12:46:56;5.77;;;5.47;;
2061;SDS011;11070;51.336;12.340;2023-06-26T12:49:35;5.70;;;5.40;;
2061;SDS011;11070;51.336;12.340;2023-06-26T12:52:03;5.50;;;5.10;;
2061;SDS011;11070;51.336;12.340;2023-06-26T12:54:40;5.93;;;5.50;;
2061;SDS011;11070;51.336;12.340;2023-06-26T12:57:07;5.97;;;5.60;;
2061;SDS011;11070;51.336;12.340;2023-06-26T12:59:35;5.77;;;5.37;;
2061;SDS011;11070;51.336;12.340;2023-06-26T13:02:01;5.87;;;5.47;;
2061;SDS011;11070;51.336;12.340;2023-06-26T13:04:28;6.13;;;5.70;;
2061;SDS011;11070;51.336;12.340;2023-06-26T13:06:54;6.60;;;6.10;;
2061;SDS011;11070;51.336;12.340;2023-06-26T13:09:19;6.53;;;6.03;;
2061;SDS011;11070;51.336;12.340;2023-06-26T13:11:46;6.73;;;6.33;;
2061;SDS011;11070;51.336;12.340;2023-06-26T13:14:12;6.37;;;5.97;;
2061;SDS011;11070;51.336;12.340;2023-06-26T13:16:38;6.67;;;6.17;;
2061;SDS011;11070;51.336;12.340;2023-06-26T13:19:04;6.40;;;5.83;;
2061;SDS011;11070;51.336;12.340;2023-06-26T13:21:30;6.60;;;6.10;;
2061;SDS011;11070;51.336;12.340;2023-06-26T13:23:56;6.33;;;5.83;;
2061;SDS011;11070;51.336;12.340;2023-06-26T13:26:22;6.40;;;6.00;;
2061;SDS011;11070;51.336;12.340;2023-06-26T13:28:50;6.40;;;6.00;;
2061;SDS011;11070;51.336;12.340;2023-06-26T13:31:16;5.80;;;5.40;;
2061;SDS011;11070;51.336;12.340;2023-06-26T13:33:42;5.93;;;5.43;;
2061;SDS011;11070;51.336;12.340;2023-06-26T13:36:07;6.03;;;5.40;;
2061;SDS011;11070;51.336;12.340;2023-06-26T13:38:33;6.53;;;6.00;;
2061;SDS011;11070;51.336;12.340;2023-06-26T13:41:00;7.10;;;5.77;;
2061;SDS011;11070;51.336;12.340;2023-06-26T13:43:26;6.23;;;5.73;;
2061;SDS011;11070;51.336;12.340;2023-06-26T13:45:52;6.53;;;6.00;;
2061;SDS011;11070;51.336;12.340;2023-06-26T13:48:18;20.63;;;7.63;;
2061;SDS011;11070;51.336;12.340;2023-06-26T13:50:45;6.27;;;5.87;;
2061;SDS011;11070;51.336;12.340;2023-06-26T13:53:11;6.50;;;6.00;;
2061;SDS011;11070;51.336;12.340;2023-06-26T13:55:36;6.60;;;6.20;;
2061;SDS011;11070;51.336;12.340;2023-06-26T13:58:03;6.40;;;5.87;;
2061;SDS011;11070;51.336;12.340;2023-06-26T14:00:30;7.17;;;6.63;;
2061;SDS011;11070;51.336;12.340;2023-06-26T14:03:00;6.27;;;5.67;;
2061;SDS011;11070;51.336;12.340;2023-06-26T14:05:28;7.27;;;6.57;;
2061;SDS011;11070;51.336;12.340;2023-06-26T14:07:56;14.63;;;8.73;;
2061;SDS011;11070;51.336;12.340;2023-06-26T14:10:22;14.10;;;9.40;;
2061;SDS011;11070;51.336;12.340;2023-06-26T14:12:48;12.67;;;10.00;;
2061;SDS011;11070;51.336;12.340;2023-06-26T14:15:14;17.17;;;10.47;;
2061;SDS011;11070;51.336;12.340;2023-06-26T14:17:40;16.67;;;10.40;;
2061;SDS011;11070;51.336;12.340;2023-06-26T14:20:06;12.53;;;10.20;;
2061;SDS011;11070;51.336;12.340;2023-06-26T14:22:38;14.80;;;11.37;;
2061;SDS011;11070;51.336;12.340;2023-06-26T14:25:04;15.53;;;11.20;;
2061;SDS011;11070;51.336;12.340;2023-06-26T14:27:31;12.10;;;10.80;;
2061;SDS011;11070;51.336;12.340;2023-06-26T14:29:57;12.00;;;10.80;;
2061;SDS011;11070;51.336;12.340;2023-06-26T14:32:22;12.07;;;10.87;;
2061;SDS011;11070;51.336;12.340;2023-06-26T14:34:48;15.33;;;11.13;;
2061;SDS011;11070;51.336;12.340;2023-06-26T14:37:14;13.67;;;12.33;;
2061;SDS011;11070;51.336;12.340;2023-06-26T14:39:39;11.60;;;10.50;;
2061;SDS011;11070;51.336;12.340;2023-06-26T14:42:05;12.73;;;11.53;;
2061;SDS011;11070;51.336;12.340;2023-06-26T14:44:32;11.30;;;10.20;;
2061;SDS011;11070;51.336;12.340;2023-06-26T14:46:57;15.10;;;12.07;;
2061;SDS011;11070;51.336;12.340;2023-06-26T14:49:23;15.23;;;10.93;;
2061;SDS011;11070;51.336;12.340;2023-06-26T14:51:48;13.17;;;11.90;;
2061;SDS011;11070;51.336;12.340;2023-06-26T14:54:14;15.33;;;11.23;;
2061;SDS011;11070;51.336;12.340;2023-06-26T14:56:40;15.10;;;11.47;;
2061;SDS011;11070;51.336;12.340;2023-06-26T14:59:06;11.83;;;10.60;;
2061;SDS011;11070;51.336;12.340;2023-06-26T15:01:32;13.03;;;11.83;;
2061;SDS011;11070;51.336;12.340;2023-06-26T15:03:58;14.77;;;10.80;;
2061;SDS011;11070;51.336;12.340;2023-06-26T15:06:24;11.83;;;10.60;;